sensor_id;sensor_type;location;lat;lon;timestamp;pressure;altitude;pressure_sealevel;temperature;humidity
28510;BME280;15723;55.684;37.928;2023-04-08T00:02:05;101244.19;;;4.29;45.95
28510;BME280;15723;55.684;37.928;2023-04-08T00:04:31;101245.44;;;4.61;45.21
28510;BME280;15723;55.684;37.928;2023-04-08T00:06:57;101243.09;;;4.41;45.62
28510;BME280;15723;55.684;37.928;2023-04-08T00:09:23;101249.59;;;4.28;45.99
28510;BME280;15723;55.684;37.928;2023-04-08T00:11:50;101244.22;;;4.28;46.09
28510;BME280;15723;55.684;37.928;2023-04-08T00:14:16;101243.34;;;4.27;46.21
28510;BME280;15723;55.684;37.928;2023-04-08T00:16:42;101247.28;;;4.05;46.63
28510;BME280;15723;55.684;37.928;2023-04-08T00:19:08;101240.63;;;4.29;46.31
28510;BME280;15723;55.684;37.928;2023-04-08T00:21:34;101239.34;;;3.99;46.67
28510;BME280;15723;55.684;37.928;2023-04-08T00:24:00;101238.19;;;4.15;46.33
28510;BME280;15723;55.684;37.928;2023-04-08T00:26:26;101243.31;;;4.29;46.05
28510;BME280;15723;55.684;37.928;2023-04-08T00:28:52;101240.31;;;3.95;46.79
28510;BME280;15723;55.684;37.928;2023-04-08T00:31:18;101245.38;;;4.13;46.29
28510;BME280;15723;55.684;37.928;2023-04-08T00:33:44;101229.34;;;4.58;45.39
28510;BME280;15723;55.684;37.928;2023-04-08T00:36:10;101245.16;;;4.27;46.10
28510;BME280;15723;55.684;37.928;2023-04-08T00:38:36;101243.75;;;4.03;46.50
28510;BME280;15723;55.684;37.928;2023-04-08T00:41:02;101243.84;;;4.49;45.43
28510;BME280;15723;55.684;37.928;2023-04-08T00:43:28;101241.28;;;4.42;45.63
28510;BME280;15723;55.684;37.928;2023-04-08T00:45:54;101247.78;;;4.30;45.80
28510;BME280;15723;55.684;37.928;2023-04-08T00:48:20;101241.44;;;4.34;45.81
28510;BME280;15723;55.684;37.928;2023-04-08T00:50:46;101244.72;;;3.99;46.51
28510;BME280;15723;55.684;37.928;2023-04-08T00:53:16;101239.47;;;4.42;45.67
28510;BME280;15723;55.684;37.928;2023-04-08T00:55:42;101244.28;;;4.25;46.00
28510;BME280;15723;55.684;37.928;2023-04-08T00:58:09;101246.94;;;4.26;46.19
28510;BME280;15723;55.684;37.928;2023-04-08T01:00:36;101255.38;;;4.03;46.60
28510;BME280;15723;55.684;37.928;2023-04-08T01:06:12;101247.63;;;3.85;47.10
28510;BME280;15723;55.684;37.928;2023-04-08T01:08:30;101244.75;;;3.96;47.02
28510;BME280;15723;55.684;37.928;2023-04-08T01:11:00;101245.50;;;4.05;46.70
28510;BME280;15723;55.684;37.928;2023-04-08T01:13:27;101251.56;;;4.18;46.37
28510;BME280;15723;55.684;37.928;2023-04-08T01:15:55;101254.06;;;3.75;47.38
28510;BME280;15723;55.684;37.928;2023-04-08T01:18:21;101250.75;;;4.15;46.53
28510;BME280;15723;55.684;37.928;2023-04-08T01:20:47;101248.06;;;3.56;47.87
28510;BME280;15723;55.684;37.928;2023-04-08T01:23:27;101249.84;;;3.57;48.00
28510;BME280;15723;55.684;37.928;2023-04-08T01:25:57;101249.97;;;3.48;48.21
28510;BME280;15723;55.684;37.928;2023-04-08T01:28:26;101255.09;;;3.65;47.99
28510;BME280;15723;55.684;37.928;2023-04-08T01:30:54;101251.19;;;3.86;47.39
28510;BME280;15723;55.684;37.928;2023-04-08T01:33:21;101252.31;;;3.71;47.77
28510;BME280;15723;55.684;37.928;2023-04-08T01:35:49;101253.19;;;3.71;47.76
28510;BME280;15723;55.684;37.928;2023-04-08T01:38:17;101248.66;;;3.76;47.73
28510;BME280;15723;55.684;37.928;2023-04-08T01:40:45;101243.81;;;3.98;47.39
28510;BME280;15723;55.684;37.928;2023-04-08T01:43:12;101246.94;;;3.71;48.17
28510;BME280;15723;55.684;37.928;2023-04-08T01:45:39;101249.66;;;3.68;47.98
28510;BME280;15723;55.684;37.928;2023-04-08T01:48:05;101249.09;;;3.46;48.62
28510;BME280;15723;55.684;37.928;2023-04-08T01:50:32;101252.09;;;3.86;47.79
28510;BME280;15723;55.684;37.928;2023-04-08T01:52:59;101251.66;;;3.55;48.48
28510;BME280;15723;55.684;37.928;2023-04-08T01:55:25;101250.88;;;3.47;48.69
28510;BME280;15723;55.684;37.928;2023-04-08T01:57:52;101247.91;;;3.67;48.19
28510;BME280;15723;55.684;37.928;2023-04-08T02:00:23;101260.38;;;3.69;48.22
28510;BME280;15723;55.684;37.928;2023-04-08T02:02:50;101256.97;;;3.58;48.42
28510;BME280;15723;55.684;37.928;2023-04-08T02:05:17;101253.41;;;3.58;48.68
28510;BME280;15723;55.684;37.928;2023-04-08T02:07:43;101261.38;;;3.64;48.63
28510;BME280;15723;55.684;37.928;2023-04-08T02:10:11;101262.41;;;3.55;48.96
28510;BME280;15723;55.684;37.928;2023-04-08T02:12:38;101252.66;;;3.48;49.07
28510;BME280;15723;55.684;37.928;2023-04-08T02:15:08;101259.91;;;3.41;49.18
28510;BME280;15723;55.684;37.928;2023-04-08T02:17:38;101262.34;;;3.58;49.31
28510;BME280;15723;55.684;37.928;2023-04-08T02:20:10;101256.13;;;3.55;49.18
28510;BME280;15723;55.684;37.928;2023-04-08T02:22:44;101253.28;;;3.65;48.92
28510;BME280;15723;55.684;37.928;2023-04-08T02:25:13;101266.50;;;3.81;48.52
28510;BME280;15723;55.684;37.928;2023-04-08T02:27:40;101251.06;;;3.35;49.67
28510;BME280;15723;55.684;37.928;2023-04-08T02:30:09;101257.03;;;3.55;49.45
28510;BME280;15723;55.684;37.928;2023-04-08T02:32:35;101257.31;;;3.35;49.92
28510;BME280;15723;55.684;37.928;2023-04-08T02:35:02;101256.22;;;3.50;49.49
28510;BME280;15723;55.684;37.928;2023-04-08T02:37:29;101249.78;;;3.60;49.39
28510;BME280;15723;55.684;37.928;2023-04-08T02:39:55;101258.59;;;3.70;49.33
28510;BME280;15723;55.684;37.928;2023-04-08T02:42:22;101263.50;;;3.42;49.98
28510;BME280;15723;55.684;37.928;2023-04-08T02:44:48;101261.34;;;3.65;49.32
28510;BME280;15723;55.684;37.928;2023-04-08T02:47:14;101271.88;;;3.14;50.59
28510;BME280;15723;55.684;37.928;2023-04-08T02:49:40;101264.31;;;3.47;49.99
28510;BME280;15723;55.684;37.928;2023-04-08T02:52:06;101276.94;;;3.40;50.19
28510;BME280;15723;55.684;37.928;2023-04-08T02:54:32;101273.06;;;3.60;49.81
28510;BME280;15723;55.684;37.928;2023-04-08T02:56:58;101270.53;;;3.51;49.73
28510;BME280;15723;55.684;37.928;2023-04-08T02:59:24;101273.00;;;3.64;49.62
28510;BME280;15723;55.684;37.928;2023-04-08T03:01:50;101272.28;;;3.53;50.05
28510;BME280;15723;55.684;37.928;2023-04-08T03:04:16;101277.88;;;3.38;50.65
28510;BME280;15723;55.684;37.928;2023-04-08T03:06:42;101283.38;;;3.90;49.53
28510;BME280;15723;55.684;37.928;2023-04-08T03:09:08;101277.22;;;4.37;48.27
28510;BME280;15723;55.684;37.928;2023-04-08T03:11:34;101279.84;;;4.40;48.34
28510;BME280;15723;55.684;37.928;2023-04-08T03:14:00;101271.75;;;5.34;46.21
28510;BME280;15723;55.684;37.928;2023-04-08T03:16:26;101265.78;;;6.01;44.68
28510;BME280;15723;55.684;37.928;2023-04-08T03:18:51;101265.34;;;6.87;42.80
28510;BME280;15723;55.684;37.928;2023-04-08T03:21:17;101268.78;;;7.83;40.95
28510;BME280;15723;55.684;37.928;2023-04-08T03:23:43;101271.53;;;6.90;41.42
28510;BME280;15723;55.684;37.928;2023-04-08T03:26:10;101272.09;;;6.71;42.32
28510;BME280;15723;55.684;37.928;2023-04-08T03:28:36;101265.69;;;7.07;41.89
28510;BME280;15723;55.684;37.928;2023-04-08T03:31:05;101271.38;;;7.28;41.47
28510;BME280;15723;55.684;37.928;2023-04-08T03:33:31;101271.22;;;7.91;40.72
28510;BME280;15723;55.684;37.928;2023-04-08T03:35:57;101268.91;;;7.79;39.83
28510;BME280;15723;55.684;37.928;2023-04-08T03:38:23;101266.22;;;9.11;38.21
28510;BME280;15723;55.684;37.928;2023-04-08T03:40:49;101266.13;;;9.37;37.08
28510;BME280;15723;55.684;37.928;2023-04-08T03:43:15;101266.84;;;10.33;35.82
28510;BME280;15723;55.684;37.928;2023-04-08T03:45:41;101269.19;;;10.20;35.75
28510;BME280;15723;55.684;37.928;2023-04-08T03:48:07;101250.47;;;11.17;34.60
28510;BME280;15723;55.684;37.928;2023-04-08T03:50:33;101261.06;;;10.62;35.05
28510;BME280;15723;55.684;37.928;2023-04-08T03:52:59;101264.50;;;10.88;34.93
28510;BME280;15723;55.684;37.928;2023-04-08T03:55:25;101263.53;;;9.34;36.33
28510;BME280;15723;55.684;37.928;2023-04-08T03:57:51;101267.38;;;9.97;36.04
28510;BME280;15723;55.684;37.928;2023-04-08T04:00:17;101264.66;;;10.43;35.33
28510;BME280;15723;55.684;37.928;2023-04-08T04:02:43;101265.66;;;9.50;36.32
28510;BME280;15723;55.684;37.928;2023-04-08T04:05:09;101264.78;;;9.94;36.29
28510;BME280;15723;55.684;37.928;2023-04-08T04:07:35;101258.53;;;9.92;36.05
28510;BME280;15723;55.684;37.928;2023-04-08T04:10:01;101272.72;;;9.77;36.17
28510;BME280;15723;55.684;37.928;2023-04-08T04:12:28;101271.00;;;10.84;35.14
28510;BME280;15723;55.684;37.928;2023-04-08T04:14:54;101268.44;;;9.71;36.11
28510;BME280;15723;55.684;37.928;2023-04-08T04:17:20;101266.28;;;10.67;35.14
28510;BME280;15723;55.684;37.928;2023-04-08T04:19:46;101268.25;;;10.63;34.84
28510;BME280;15723;55.684;37.928;2023-04-08T04:22:12;101273.78;;;10.18;35.85
28510;BME280;15723;55.684;37.928;2023-04-08T04:24:38;101276.69;;;10.98;34.67
28510;BME280;15723;55.684;37.928;2023-04-08T04:27:04;101268.00;;;11.49;33.77
28510;BME280;15723;55.684;37.928;2023-04-08T04:29:30;101270.66;;;12.97;31.75
28510;BME280;15723;55.684;37.928;2023-04-08T04:31:56;101273.88;;;13.05;30.64
28510;BME280;15723;55.684;37.928;2023-04-08T04:34:22;101265.47;;;14.38;29.80
28510;BME280;15723;55.684;37.928;2023-04-08T04:36:48;101265.41;;;15.44;28.46
28510;BME280;15723;55.684;37.928;2023-04-08T04:39:14;101267.50;;;14.35;29.09
28510;BME280;15723;55.684;37.928;2023-04-08T04:41:40;101268.50;;;15.68;27.86
28510;BME280;15723;55.684;37.928;2023-04-08T04:44:07;101259.28;;;16.51;27.01
28510;BME280;15723;55.684;37.928;2023-04-08T04:46:33;101261.97;;;16.93;26.46
28510;BME280;15723;55.684;37.928;2023-04-08T04:48:59;101260.28;;;17.68;25.29
28510;BME280;15723;55.684;37.928;2023-04-08T04:51:25;101253.47;;;18.47;24.42
28510;BME280;15723;55.684;37.928;2023-04-08T04:53:52;101269.97;;;14.85;28.10
28510;BME280;15723;55.684;37.928;2023-04-08T04:56:18;101257.31;;;17.71;25.07
28510;BME280;15723;55.684;37.928;2023-04-08T04:58:45;101260.47;;;17.65;25.53
28510;BME280;15723;55.684;37.928;2023-04-08T05:01:11;101255.34;;;17.47;25.53
28510;BME280;15723;55.684;37.928;2023-04-08T05:03:38;101252.38;;;19.08;23.62
28510;BME280;15723;55.684;37.928;2023-04-08T05:06:04;101249.88;;;18.57;23.68
28510;BME280;15723;55.684;37.928;2023-04-08T05:08:30;101262.03;;;18.18;23.98
28510;BME280;15723;55.684;37.928;2023-04-08T05:10:57;101251.25;;;17.91;24.54
28510;BME280;15723;55.684;37.928;2023-04-08T05:13:27;101252.91;;;19.24;23.55
28510;BME280;15723;55.684;37.928;2023-04-08T05:15:53;101268.53;;;19.92;22.52
28510;BME280;15723;55.684;37.928;2023-04-08T05:18:20;101251.25;;;20.67;22.23
28510;BME280;15723;55.684;37.928;2023-04-08T05:20:46;101262.66;;;18.82;23.26
28510;BME280;15723;55.684;37.928;2023-04-08T05:23:13;101262.25;;;19.68;22.84
28510;BME280;15723;55.684;37.928;2023-04-08T05:25:39;101271.47;;;19.45;23.33
28510;BME280;15723;55.684;37.928;2023-04-08T05:28:06;101277.41;;;19.62;22.63
28510;BME280;15723;55.684;37.928;2023-04-08T05:30:32;101264.56;;;20.94;21.74
28510;BME280;15723;55.684;37.928;2023-04-08T05:32:58;101261.31;;;22.43;20.48
28510;BME280;15723;55.684;37.928;2023-04-08T05:35:24;101267.22;;;21.37;20.82
28510;BME280;15723;55.684;37.928;2023-04-08T05:37:51;101262.97;;;23.03;19.89
28510;BME280;15723;55.684;37.928;2023-04-08T05:40:17;101265.34;;;21.59;20.79
28510;BME280;15723;55.684;37.928;2023-04-08T05:42:43;101272.41;;;21.82;20.89
28510;BME280;15723;55.684;37.928;2023-04-08T05:45:10;101264.47;;;22.29;20.08
28510;BME280;15723;55.684;37.928;2023-04-08T05:47:36;101270.53;;;23.50;19.15
28510;BME280;15723;55.684;37.928;2023-04-08T05:50:03;101274.22;;;19.33;22.32
28510;BME280;15723;55.684;37.928;2023-04-08T05:52:29;101257.59;;;22.83;19.70
28510;BME280;15723;55.684;37.928;2023-04-08T05:54:55;101275.00;;;20.90;21.22
28510;BME280;15723;55.684;37.928;2023-04-08T05:57:21;101271.53;;;21.51;20.87
28510;BME280;15723;55.684;37.928;2023-04-08T05:59:48;101279.22;;;21.27;21.56
28510;BME280;15723;55.684;37.928;2023-04-08T06:02:14;101270.41;;;22.74;19.88
28510;BME280;15723;55.684;37.928;2023-04-08T06:04:40;101272.50;;;22.32;20.20
28510;BME280;15723;55.684;37.928;2023-04-08T06:07:07;101267.00;;;22.61;19.53
28510;BME280;15723;55.684;37.928;2023-04-08T06:09:34;101271.53;;;19.89;22.70
28510;BME280;15723;55.684;37.928;2023-04-08T06:12:02;101271.94;;;20.07;22.34
28510;BME280;15723;55.684;37.928;2023-04-08T06:14:28;101273.56;;;19.19;23.22
28510;BME280;15723;55.684;37.928;2023-04-08T06:16:54;101267.19;;;19.29;23.32
28510;BME280;15723;55.684;37.928;2023-04-08T06:19:22;101277.97;;;18.50;24.20
28510;BME280;15723;55.684;37.928;2023-04-08T06:21:48;101267.78;;;19.79;23.17
28510;BME280;15723;55.684;37.928;2023-04-08T06:24:16;101270.00;;;20.52;22.32
28510;BME280;15723;55.684;37.928;2023-04-08T06:26:42;101266.03;;;20.12;22.86
28510;BME280;15723;55.684;37.928;2023-04-08T06:29:08;101271.53;;;18.74;24.18
28510;BME280;15723;55.684;37.928;2023-04-08T06:31:35;101275.88;;;19.01;24.29
28510;BME280;15723;55.684;37.928;2023-04-08T06:34:01;101268.91;;;19.65;23.38
28510;BME280;15723;55.684;37.928;2023-04-08T06:36:27;101267.53;;;19.93;22.77
28510;BME280;15723;55.684;37.928;2023-04-08T06:38:53;101273.19;;;20.69;22.04
28510;BME280;15723;55.684;37.928;2023-04-08T06:41:20;101277.28;;;21.06;22.02
28510;BME280;15723;55.684;37.928;2023-04-08T06:43:47;101273.06;;;21.65;21.58
28510;BME280;15723;55.684;37.928;2023-04-08T06:46:14;101274.63;;;20.41;22.27
28510;BME280;15723;55.684;37.928;2023-04-08T06:48:40;101269.84;;;22.21;21.05
28510;BME280;15723;55.684;37.928;2023-04-08T06:51:06;101270.53;;;23.59;19.69
28510;BME280;15723;55.684;37.928;2023-04-08T06:53:32;101267.63;;;22.14;20.35
28510;BME280;15723;55.684;37.928;2023-04-08T06:55:59;101264.47;;;23.74;19.79
28510;BME280;15723;55.684;37.928;2023-04-08T06:58:25;101263.78;;;24.63;18.79
28510;BME280;15723;55.684;37.928;2023-04-08T07:00:55;101263.50;;;23.65;19.01
28510;BME280;15723;55.684;37.928;2023-04-08T07:03:22;101264.03;;;25.06;18.16
28510;BME280;15723;55.684;37.928;2023-04-08T07:05:49;101258.16;;;25.52;17.59
28510;BME280;15723;55.684;37.928;2023-04-08T07:08:15;101258.06;;;26.22;17.53
28510;BME280;15723;55.684;37.928;2023-04-08T07:10:41;101257.25;;;22.66;19.54
28510;BME280;15723;55.684;37.928;2023-04-08T07:13:07;101257.41;;;25.42;17.80
28510;BME280;15723;55.684;37.928;2023-04-08T07:15:34;101261.41;;;24.41;18.39
28510;BME280;15723;55.684;37.928;2023-04-08T07:18:00;101257.09;;;24.56;18.80
28510;BME280;15723;55.684;37.928;2023-04-08T07:20:27;101256.72;;;23.01;20.07
28510;BME280;15723;55.684;37.928;2023-04-08T07:22:53;101254.25;;;22.20;20.43
28510;BME280;15723;55.684;37.928;2023-04-08T07:25:20;101253.19;;;25.38;18.13
28510;BME280;15723;55.684;37.928;2023-04-08T07:27:46;101249.28;;;24.42;19.11
28510;BME280;15723;55.684;37.928;2023-04-08T07:30:13;101252.66;;;22.27;20.31
28510;BME280;15723;55.684;37.928;2023-04-08T07:32:39;101247.31;;;24.35;19.16
28510;BME280;15723;55.684;37.928;2023-04-08T07:35:06;101235.41;;;26.59;17.38
28510;BME280;15723;55.684;37.928;2023-04-08T07:37:32;101237.91;;;26.78;17.44
28510;BME280;15723;55.684;37.928;2023-04-08T07:39:58;101243.19;;;25.02;18.24
28510;BME280;15723;55.684;37.928;2023-04-08T07:42:24;101240.31;;;24.30;18.69
28510;BME280;15723;55.684;37.928;2023-04-08T07:44:51;101246.78;;;23.28;19.61
28510;BME280;15723;55.684;37.928;2023-04-08T07:47:18;101240.94;;;22.54;20.76
28510;BME280;15723;55.684;37.928;2023-04-08T07:49:47;101253.78;;;19.14;23.69
28510;BME280;15723;55.684;37.928;2023-04-08T07:52:13;101253.03;;;20.89;22.28
28510;BME280;15723;55.684;37.928;2023-04-08T07:54:39;101249.38;;;21.41;21.51
28510;BME280;15723;55.684;37.928;2023-04-08T07:57:05;101237.34;;;24.05;19.50
28510;BME280;15723;55.684;37.928;2023-04-08T07:59:31;101247.19;;;21.96;20.88
28510;BME280;15723;55.684;37.928;2023-04-08T08:01:58;101252.94;;;20.36;22.87
28510;BME280;15723;55.684;37.928;2023-04-08T08:04:24;101247.03;;;20.84;21.74
28510;BME280;15723;55.684;37.928;2023-04-08T08:06:50;101243.53;;;24.26;19.15
28510;BME280;15723;55.684;37.928;2023-04-08T08:09:17;101232.75;;;23.39;19.76
28510;BME280;15723;55.684;37.928;2023-04-08T08:11:43;101240.97;;;23.78;19.29
28510;BME280;15723;55.684;37.928;2023-04-08T08:14:10;101231.94;;;23.19;19.96
28510;BME280;15723;55.684;37.928;2023-04-08T08:16:38;101231.19;;;25.01;18.80
28510;BME280;15723;55.684;37.928;2023-04-08T08:19:04;101228.31;;;25.11;18.17
28510;BME280;15723;55.684;37.928;2023-04-08T08:21:37;101231.25;;;23.64;19.50
28510;BME280;15723;55.684;37.928;2023-04-08T08:24:04;101227.53;;;25.01;18.57
28510;BME280;15723;55.684;37.928;2023-04-08T08:26:34;101230.50;;;21.46;21.32
28510;BME280;15723;55.684;37.928;2023-04-08T08:29:02;101220.28;;;23.72;19.74
28510;BME280;15723;55.684;37.928;2023-04-08T08:31:28;101226.38;;;21.62;21.68
28510;BME280;15723;55.684;37.928;2023-04-08T08:33:54;101220.84;;;22.52;20.93
28510;BME280;15723;55.684;37.928;2023-04-08T08:36:20;101228.03;;;22.04;21.04
28510;BME280;15723;55.684;37.928;2023-04-08T08:38:47;101225.31;;;20.90;22.34
28510;BME280;15723;55.684;37.928;2023-04-08T08:41:13;101224.81;;;20.10;23.30
28510;BME280;15723;55.684;37.928;2023-04-08T08:43:40;101218.41;;;19.43;24.78
28510;BME280;15723;55.684;37.928;2023-04-08T08:46:09;101220.75;;;18.67;26.10
28510;BME280;15723;55.684;37.928;2023-04-08T08:48:37;101212.78;;;19.33;25.15
28510;BME280;15723;55.684;37.928;2023-04-08T08:51:09;101211.75;;;18.77;25.71
28510;BME280;15723;55.684;37.928;2023-04-08T08:53:36;101218.03;;;18.90;24.74
28510;BME280;15723;55.684;37.928;2023-04-08T08:56:04;101208.97;;;19.12;24.89
28510;BME280;15723;55.684;37.928;2023-04-08T08:58:31;101203.06;;;18.59;25.45
28510;BME280;15723;55.684;37.928;2023-04-08T09:00:57;101217.09;;;17.70;26.64
28510;BME280;15723;55.684;37.928;2023-04-08T09:03:25;101211.41;;;17.47;27.13
28510;BME280;15723;55.684;37.928;2023-04-08T09:05:57;101216.31;;;16.92;26.26
28510;BME280;15723;55.684;37.928;2023-04-08T09:08:34;101222.06;;;16.08;27.09
28510;BME280;15723;55.684;37.928;2023-04-08T09:11:15;101235.47;;;15.98;27.64
28510;BME280;15723;55.684;37.928;2023-04-08T09:13:43;101209.84;;;16.53;26.51
28510;BME280;15723;55.684;37.928;2023-04-08T09:16:12;101215.50;;;16.10;29.01
28510;BME280;15723;55.684;37.928;2023-04-08T09:18:39;101215.88;;;16.45;27.74
28510;BME280;15723;55.684;37.928;2023-04-08T09:21:08;101221.91;;;15.54;27.78
28510;BME280;15723;55.684;37.928;2023-04-08T09:23:47;101216.91;;;15.89;28.02
28510;BME280;15723;55.684;37.928;2023-04-08T09:26:19;101216.84;;;15.76;28.12
28510;BME280;15723;55.684;37.928;2023-04-08T09:29:01;101223.38;;;15.45;30.12
28510;BME280;15723;55.684;37.928;2023-04-08T09:31:37;101220.66;;;15.45;28.36
28510;BME280;15723;55.684;37.928;2023-04-08T09:34:15;101221.00;;;14.96;28.81
28510;BME280;15723;55.684;37.928;2023-04-08T09:36:42;101212.25;;;16.45;28.02
28510;BME280;15723;55.684;37.928;2023-04-08T09:39:09;101218.25;;;16.10;27.79
28510;BME280;15723;55.684;37.928;2023-04-08T09:41:37;101203.50;;;16.25;29.77
28510;BME280;15723;55.684;37.928;2023-04-08T09:44:05;101211.16;;;15.79;28.15
28510;BME280;15723;55.684;37.928;2023-04-08T09:46:39;101204.84;;;16.33;29.43
28510;BME280;15723;55.684;37.928;2023-04-08T09:49:28;101201.03;;;16.08;29.50
28510;BME280;15723;55.684;37.928;2023-04-08T09:51:58;101191.91;;;15.81;31.01
28510;BME280;15723;55.684;37.928;2023-04-08T09:54:47;101194.94;;;16.57;28.92
28510;BME280;15723;55.684;37.928;2023-04-08T09:57:27;101211.84;;;15.83;27.76
28510;BME280;15723;55.684;37.928;2023-04-08T10:00:11;101194.28;;;15.58;29.04
28510;BME280;15723;55.684;37.928;2023-04-08T10:02:55;101191.69;;;15.55;28.70
28510;BME280;15723;55.684;37.928;2023-04-08T10:05:26;101185.41;;;15.96;27.42
28510;BME280;15723;55.684;37.928;2023-04-08T10:07:55;101184.59;;;16.08;28.97
28510;BME280;15723;55.684;37.928;2023-04-08T10:10:23;101185.97;;;15.31;30.60
28510;BME280;15723;55.684;37.928;2023-04-08T10:12:50;101189.47;;;15.05;29.69
28510;BME280;15723;55.684;37.928;2023-04-08T10:15:33;101182.34;;;15.74;30.14
28510;BME280;15723;55.684;37.928;2023-04-08T10:20:50;101189.56;;;16.16;28.57
28510;BME280;15723;55.684;37.928;2023-04-08T10:23:17;101181.63;;;15.84;28.55
28510;BME280;15723;55.684;37.928;2023-04-08T10:25:47;101181.63;;;15.56;28.87
28510;BME280;15723;55.684;37.928;2023-04-08T10:30:47;101179.44;;;15.62;30.74
28510;BME280;15723;55.684;37.928;2023-04-08T10:33:15;101180.13;;;15.93;29.81
28510;BME280;15723;55.684;37.928;2023-04-08T10:35:52;101175.19;;;16.12;30.01
28510;BME280;15723;55.684;37.928;2023-04-08T10:38:19;101182.03;;;15.21;31.19
28510;BME280;15723;55.684;37.928;2023-04-08T10:40:48;101183.56;;;14.83;31.39
28510;BME280;15723;55.684;37.928;2023-04-08T10:43:14;101174.75;;;15.65;30.72
28510;BME280;15723;55.684;37.928;2023-04-08T10:45:41;101164.09;;;15.87;29.87
28510;BME280;15723;55.684;37.928;2023-04-08T10:48:19;101172.69;;;15.25;29.85
28510;BME280;15723;55.684;37.928;2023-04-08T10:50:55;101153.94;;;15.33;30.63
28510;BME280;15723;55.684;37.928;2023-04-08T10:58:29;101156.53;;;15.78;29.56
28510;BME280;15723;55.684;37.928;2023-04-08T11:00:55;101162.44;;;15.29;29.50
28510;BME280;15723;55.684;37.928;2023-04-08T11:03:27;101166.13;;;15.42;30.46
28510;BME280;15723;55.684;37.928;2023-04-08T11:05:56;101154.59;;;15.23;30.50
28510;BME280;15723;55.684;37.928;2023-04-08T11:08:30;101146.09;;;15.42;30.43
28510;BME280;15723;55.684;37.928;2023-04-08T11:10:58;101150.84;;;15.81;29.74
28510;BME280;15723;55.684;37.928;2023-04-08T11:13:27;101139.75;;;15.41;29.74
28510;BME280;15723;55.684;37.928;2023-04-08T11:16:03;101145.03;;;15.16;30.72
28510;BME280;15723;55.684;37.928;2023-04-08T11:18:31;101143.06;;;15.18;30.71
28510;BME280;15723;55.684;37.928;2023-04-08T11:20:59;101132.91;;;15.34;31.37
28510;BME280;15723;55.684;37.928;2023-04-08T11:23:26;101121.19;;;14.61;32.36
28510;BME280;15723;55.684;37.928;2023-04-08T11:25:53;101133.78;;;15.35;32.01
28510;BME280;15723;55.684;37.928;2023-04-08T11:28:19;101133.69;;;15.22;31.82
28510;BME280;15723;55.684;37.928;2023-04-08T11:30:46;101134.97;;;15.16;33.12
28510;BME280;15723;55.684;37.928;2023-04-08T11:33:14;101126.47;;;15.35;32.52
28510;BME280;15723;55.684;37.928;2023-04-08T11:35:41;101128.03;;;15.39;34.27
28510;BME280;15723;55.684;37.928;2023-04-08T11:38:08;101139.94;;;15.10;32.01
28510;BME280;15723;55.684;37.928;2023-04-08T11:40:35;101130.38;;;15.31;30.98
28510;BME280;15723;55.684;37.928;2023-04-08T11:43:10;101133.41;;;15.12;31.58
28510;BME280;15723;55.684;37.928;2023-04-08T11:45:40;101134.19;;;15.28;30.74
28510;BME280;15723;55.684;37.928;2023-04-08T11:48:11;101139.88;;;14.97;31.46
28510;BME280;15723;55.684;37.928;2023-04-08T11:50:40;101125.38;;;14.66;31.81
28510;BME280;15723;55.684;37.928;2023-04-08T11:53:20;101127.06;;;15.12;32.35
28510;BME280;15723;55.684;37.928;2023-04-08T11:55:47;101128.72;;;15.14;30.53
28510;BME280;15723;55.684;37.928;2023-04-08T11:58:14;101127.25;;;15.09;30.19
28510;BME280;15723;55.684;37.928;2023-04-08T12:00:41;101114.16;;;14.85;32.73
28510;BME280;15723;55.684;37.928;2023-04-08T12:03:08;101115.91;;;14.86;32.68
28510;BME280;15723;55.684;37.928;2023-04-08T12:05:36;101114.94;;;15.16;31.55
28510;BME280;15723;55.684;37.928;2023-04-08T12:08:02;101102.63;;;14.80;32.70
28510;BME280;15723;55.684;37.928;2023-04-08T12:10:29;101118.19;;;15.08;31.41
28510;BME280;15723;55.684;37.928;2023-04-08T12:12:56;101121.31;;;14.88;30.50
28510;BME280;15723;55.684;37.928;2023-04-08T12:15:22;101114.16;;;14.57;30.87
28510;BME280;15723;55.684;37.928;2023-04-08T12:17:49;101105.19;;;14.83;33.74
28510;BME280;15723;55.684;37.928;2023-04-08T12:20:15;101102.53;;;15.10;33.31
28510;BME280;15723;55.684;37.928;2023-04-08T12:22:42;101104.00;;;15.30;31.72
28510;BME280;15723;55.684;37.928;2023-04-08T12:25:08;101103.59;;;15.36;32.39
28510;BME280;15723;55.684;37.928;2023-04-08T12:27:34;101097.09;;;15.24;31.86
28510;BME280;15723;55.684;37.928;2023-04-08T12:30:02;101102.25;;;15.15;33.00
28510;BME280;15723;55.684;37.928;2023-04-08T12:32:29;101110.16;;;15.05;31.82
28510;BME280;15723;55.684;37.928;2023-04-08T12:34:55;101112.41;;;14.84;33.52
28510;BME280;15723;55.684;37.928;2023-04-08T12:37:23;101092.69;;;15.08;34.41
28510;BME280;15723;55.684;37.928;2023-04-08T12:39:49;101090.94;;;15.07;32.39
28510;BME280;15723;55.684;37.928;2023-04-08T12:42:16;101094.34;;;15.10;31.52
28510;BME280;15723;55.684;37.928;2023-04-08T12:44:42;101094.34;;;15.10;32.46
28510;BME280;15723;55.684;37.928;2023-04-08T12:47:08;101088.00;;;15.24;31.60
28510;BME280;15723;55.684;37.928;2023-04-08T12:49:35;101090.91;;;15.35;31.07
28510;BME280;15723;55.684;37.928;2023-04-08T12:52:01;101085.06;;;15.27;33.52
28510;BME280;15723;55.684;37.928;2023-04-08T12:54:28;101078.63;;;15.55;31.50
28510;BME280;15723;55.684;37.928;2023-04-08T12:56:56;101078.25;;;15.47;31.19
28510;BME280;15723;55.684;37.928;2023-04-08T12:59:22;101066.69;;;15.56;31.48